Time;durP1;ratioP1;P1;durP2;ratioP2;P2;SDS_P1;SDS_P2;PMS_P1;PMS_P2;Temp;Humidity;BMP_temperature;BMP_pressure;BME280_temperature;BME280_humidity;BME280_pressure;Samples;Min_cycle;Max_cycle;Signal;HPM_P1;HPM_P2
2024/01/31 00:01:17;;;;;;;63.60;58.47;;;;;;;;;;4216444;28;20099;-62
2024/01/31 00:03:19;;;;;;;62.45;57.05;;;;;;;;;;4215814;28;20141;-62
2024/01/31 00:05:21;;;;;;;63.78;58.10;;;;;;;;;;4215788;28;20048;-62
2024/01/31 00:07:23;;;;;;;64.20;57.95;;;;;;;;;;4215852;28;20488;-62
2024/01/31 00:09:25;;;;;;;65.72;58.80;;;;;;;;;;4215792;28;20480;-62
2024/01/31 00:11:29;;;;;;;66.55;60.65;;;;;;;;;;4215683;28;20040;-62
2024/01/31 00:13:31;;;;;;;67.22;61.13;;;;;;;;;;4215992;28;20043;-62
2024/01/31 00:15:33;;;;;;;78.83;70.77;;;;;;;;;;4215796;28;20032;-62
2024/01/31 00:17:34;;;;;;;86.65;77.15;;;;;;;;;;4215725;28;20040;-62
2024/01/31 00:19:36;;;;;;;78.70;70.63;;;;;;;;;;4215562;28;20404;-62
2024/01/31 00:21:38;;;;;;;68.00;60.93;;;;;;;;;;4215464;28;20044;-62
2024/01/31 00:23:42;;;;;;;68.20;61.63;;;;;;;;;;4215476;28;20289;-62
2024/01/31 00:25:44;;;;;;;69.53;62.47;;;;;;;;;;4215360;28;20100;-62
2024/01/31 00:27:45;;;;;;;67.00;60.80;;;;;;;;;;4215543;28;20055;-62
2024/01/31 00:29:48;;;;;;;;;;;;;;;;;;4215924;28;20040;-58
2024/01/31 00:31:51;;;;;;;65.30;59.83;;;;;;;;;;4215441;28;20019;-57
2024/01/31 00:33:54;;;;;;;63.97;58.42;;;;;;;;;;4215344;28;20043;-57
2024/01/31 00:35:56;;;;;;;62.92;57.08;;;;;;;;;;4214245;28;20403;-59
2024/01/31 00:37:57;;;;;;;61.60;55.83;;;;;;;;;;4215176;28;20031;-58
2024/01/31 00:39:59;;;;;;;59.60;54.88;;;;;;;;;;4215268;28;20052;-62
2024/01/31 00:42:01;;;;;;;63.63;58.23;;;;;;;;;;4214428;28;20041;-62
2024/01/31 00:44:03;;;;;;;62.58;56.53;;;;;;;;;;4198405;28;20314;-62
2024/01/31 00:46:04;;;;;;;62.55;57.30;;;;;;;;;;4198649;28;20076;-62
2024/01/31 00:48:06;;;;;;;66.63;60.57;;;;;;;;;;4198303;28;20044;-62
2024/01/31 00:50:08;;;;;;;73.70;66.47;;;;;;;;;;4204399;28;20131;-63
2024/01/31 00:52:10;;;;;;;73.60;66.40;;;;;;;;;;4214968;28;20048;-62
2024/01/31 00:54:12;;;;;;;71.43;64.20;;;;;;;;;;4215082;28;20044;-62
2024/01/31 00:56:14;;;;;;;80.38;69.68;;;;;;;;;;4215080;28;20040;-62
2024/01/31 00:58:15;;;;;;;77.93;70.10;;;;;;;;;;4214659;28;20046;-62
2024/01/31 01:00:17;;;;;;;77.10;69.10;;;;;;;;;;4214562;28;20032;-62
2024/01/31 01:02:19;;;;;;;64.90;59.20;;;;;;;;;;4214672;28;20044;-62
2024/01/31 01:04:21;;;;;;;71.73;64.67;;;;;;;;;;4214863;28;20431;-62
2024/01/31 01:06:23;;;;;;;70.20;63.25;;;;;;;;;;4215044;28;20044;-62
2024/01/31 01:08:24;;;;;;;72.73;65.63;;;;;;;;;;4214897;28;20050;-62
2024/01/31 01:10:27;;;;;;;78.10;69.77;;;;;;;;;;4214937;28;20507;-62
2024/01/31 01:12:29;;;;;;;73.15;65.82;;;;;;;;;;4213447;28;20047;-62
2024/01/31 01:14:31;;;;;;;77.00;69.60;;;;;;;;;;4215022;28;20042;-62
2024/01/31 01:16:33;;;;;;;74.03;66.90;;;;;;;;;;4214730;28;20293;-62
2024/01/31 01:18:35;;;;;;;80.72;72.57;;;;;;;;;;4214674;28;20040;-62
2024/01/31 01:20:36;;;;;;;79.32;71.18;;;;;;;;;;4214824;28;20032;-62
2024/01/31 01:22:38;;;;;;;80.72;72.55;;;;;;;;;;4214708;28;20117;-62
2024/01/31 01:24:40;;;;;;;75.78;68.43;;;;;;;;;;4214561;28;20114;-62
2024/01/31 01:26:44;;;;;;;76.80;69.50;;;;;;;;;;4214687;28;20036;-62
2024/01/31 01:28:46;;;;;;;78.07;70.53;;;;;;;;;;4206857;28;20522;-62
2024/01/31 01:30:48;;;;;;;70.22;63.10;;;;;;;;;;4198609;28;20055;-62
2024/01/31 01:32:50;;;;;;;68.30;62.58;;;;;;;;;;4214296;28;20040;-62
2024/01/31 01:34:51;;;;;;;70.28;63.80;;;;;;;;;;4214686;28;20085;-62
2024/01/31 01:36:56;;;;;;;69.78;64.35;;;;;;;;;;4214671;28;20422;-62
2024/01/31 01:38:57;;;;;;;67.20;61.78;;;;;;;;;;4207764;28;20500;-62
2024/01/31 01:40:59;;;;;;;66.40;60.63;;;;;;;;;;4197637;28;20381;-62
2024/01/31 01:43:01;;;;;;;64.53;58.77;;;;;;;;;;4197492;28;20051;-62
2024/01/31 01:45:03;;;;;;;62.58;57.63;;;;;;;;;;4197449;28;20377;-62
2024/01/31 01:47:04;;;;;;;65.03;59.60;;;;;;;;;;4209533;28;20134;-62
2024/01/31 01:49:06;;;;;;;63.25;58.10;;;;;;;;;;4214198;28;20044;-59
2024/01/31 01:51:09;;;;;;;66.88;61.72;;;;;;;;;;4214063;28;20123;-58
2024/01/31 01:53:11;;;;;;;66.07;60.72;;;;;;;;;;4214103;28;20040;-58
2024/01/31 01:55:12;;;;;;;62.97;58.25;;;;;;;;;;4213883;28;20061;-58
2024/01/31 01:57:14;;;;;;;60.72;56.03;;;;;;;;;;4214118;28;20032;-59
2024/01/31 01:59:16;;;;;;;63.08;58.05;;;;;;;;;;4212814;28;20051;-58
2024/01/31 02:01:18;;;;;;;61.42;56.88;;;;;;;;;;4214644;28;20038;-57
2024/01/31 02:03:20;;;;;;;60.72;56.15;;;;;;;;;;4213026;28;20032;-58
2024/01/31 02:05:22;;;;;;;61.95;57.03;;;;;;;;;;4213947;28;20040;-58
2024/01/31 02:07:26;;;;;;;60.85;55.90;;;;;;;;;;4214195;28;20101;-58
2024/01/31 02:09:29;;;;;;;67.20;61.47;;;;;;;;;;4213951;28;20040;-58
2024/01/31 02:11:31;;;;;;;67.38;61.78;;;;;;;;;;4213932;28;20069;-58
2024/01/31 02:13:32;;;;;;;68.70;63.03;;;;;;;;;;4213158;28;20089;-59
2024/01/31 02:15:34;;;;;;;64.40;58.87;;;;;;;;;;4213917;28;20032;-59
2024/01/31 02:17:36;;;;;;;65.22;59.63;;;;;;;;;;4213916;28;20040;-58
2024/01/31 02:19:37;;;;;;;64.97;59.67;;;;;;;;;;4213963;28;20058;-58
2024/01/31 02:21:41;;;;;;;63.63;58.65;;;;;;;;;;4214130;28;20050;-58
2024/01/31 02:23:43;;;;;;;63.88;58.50;;;;;;;;;;4214036;28;20500;-58
2024/01/31 02:25:45;;;;;;;62.67;57.75;;;;;;;;;;4213769;28;20439;-59
2024/01/31 02:27:46;;;;;;;59.33;55.00;;;;;;;;;;4213686;28;20051;-58
2024/01/31 02:29:48;;;;;;;59.05;54.58;;;;;;;;;;4214055;28;20042;-59
2024/01/31 02:31:50;;;;;;;62.13;57.57;;;;;;;;;;4213602;28;20040;-58
2024/01/31 02:33:51;;;;;;;59.30;55.22;;;;;;;;;;4213713;28;20496;-57
2024/01/31 02:35:53;;;;;;;74.63;67.30;;;;;;;;;;4201482;28;20049;-58
2024/01/31 02:37:57;;;;;;;62.88;58.40;;;;;;;;;;4197150;28;20041;-58
2024/01/31 02:40:02;;;;;;;61.58;57.03;;;;;;;;;;4196915;28;20102;-58
2024/01/31 02:42:05;;;;;;;59.70;55.42;;;;;;;;;;4196938;28;20055;-57
2024/01/31 02:44:06;;;;;;;61.97;56.67;;;;;;;;;;4197012;28;20079;-57
2024/01/31 02:46:08;;;;;;;61.63;57.08;;;;;;;;;;4196801;28;20302;-58
2024/01/31 02:48:10;;;;;;;66.40;61.05;;;;;;;;;;4197149;28;20105;-58
2024/01/31 02:50:13;;;;;;;62.40;57.63;;;;;;;;;;4197008;28;20037;-59
2024/01/31 02:52:15;;;;;;;60.15;55.97;;;;;;;;;;4196812;28;20094;-58
2024/01/31 02:54:17;;;;;;;57.53;53.50;;;;;;;;;;4196885;28;20045;-59
2024/01/31 02:56:18;;;;;;;60.15;56.00;;;;;;;;;;4196902;28;20143;-58
2024/01/31 02:58:20;;;;;;;54.93;51.27;;;;;;;;;;4208580;28;20093;-58
2024/01/31 03:00:22;;;;;;;62.67;58.30;;;;;;;;;;4213876;28;20488;-62
2024/01/31 03:02:25;;;;;;;61.88;57.22;;;;;;;;;;4213492;28;20052;-62
2024/01/31 03:04:27;;;;;;;60.20;55.93;;;;;;;;;;4213555;28;20048;-62
2024/01/31 03:06:28;;;;;;;60.45;55.95;;;;;;;;;;4213421;28;20511;-62
2024/01/31 03:08:30;;;;;;;57.90;53.92;;;;;;;;;;4213457;28;20106;-62
2024/01/31 03:10:32;;;;;;;60.50;56.22;;;;;;;;;;4213377;28;20127;-62
2024/01/31 03:12:34;;;;;;;53.20;49.58;;;;;;;;;;4212470;28;20496;-62
2024/01/31 03:14:36;;;;;;;55.35;51.78;;;;;;;;;;4213404;28;20036;-62
2024/01/31 03:16:39;;;;;;;53.85;50.33;;;;;;;;;;4213469;28;20041;-62
2024/01/31 03:18:42;;;;;;;53.10;49.83;;;;;;;;;;4213541;28;20036;-62
2024/01/31 03:20:44;;;;;;;51.90;48.10;;;;;;;;;;4213811;28;20119;-62
2024/01/31 03:22:46;;;;;;;57.03;52.72;;;;;;;;;;4213713;28;20044;-62
2024/01/31 03:24:47;;;;;;;64.93;60.45;;;;;;;;;;4215500;28;20123;-62
2024/01/31 03:26:49;;;;;;;60.07;56.03;;;;;;;;;;4216700;28;20119;-62
2024/01/31 03:28:50;;;;;;;57.33;53.13;;;;;;;;;;4216473;28;20036;-62
2024/01/31 03:30:52;;;;;;;63.53;59.10;;;;;;;;;;4216093;28;20044;-62
2024/01/31 03:32:54;;;;;;;62.20;57.45;;;;;;;;;;4211531;28;20488;-62
2024/01/31 03:34:55;;;;;;;63.50;58.00;;;;;;;;;;4199551;28;20492;-62
2024/01/31 03:36:57;;;;;;;59.35;54.85;;;;;;;;;;4199469;28;20036;-62
2024/01/31 03:38:59;;;;;;;63.70;58.83;;;;;;;;;;4199358;28;20059;-62
2024/01/31 03:41:03;;;;;;;61.80;57.25;;;;;;;;;;4199422;28;20278;-62
2024/01/31 03:43:04;;;;;;;59.47;54.75;;;;;;;;;;4209306;28;20047;-62
2024/01/31 03:45:07;;;;;;;61.37;56.53;;;;;;;;;;4216532;28;20036;-62
2024/01/31 03:47:09;;;;;;;63.47;57.85;;;;;;;;;;4216411;28;20043;-62
2024/01/31 03:49:11;;;;;;;58.80;54.47;;;;;;;;;;4215953;28;20119;-62
2024/01/31 03:51:21;;;;;;;61.15;56.30;;;;;;;;;;4216258;28;20043;-58
2024/01/31 03:53:23;;;;;;;64.82;60.22;;;;;;;;;;4216162;28;20046;-58
2024/01/31 03:55:25;;;;;;;63.08;58.53;;;;;;;;;;4216026;28;20138;-59
2024/01/31 03:57:33;;;;;;;58.33;54.10;;;;;;;;;;4215953;28;20036;-57
2024/01/31 03:59:36;;;;;;;63.83;59.33;;;;;;;;;;4214597;28;20550;-57
2024/01/31 04:01:40;;;;;;;58.78;54.47;;;;;;;;;;4215960;28;20044;-58
2024/01/31 04:03:43;;;;;;;59.57;54.47;;;;;;;;;;4216007;28;20044;-58
2024/01/31 04:05:45;;;;;;;62.20;57.65;;;;;;;;;;4215840;28;20762;-58
2024/01/31 04:07:46;;;;;;;61.37;56.93;;;;;;;;;;4216037;28;20040;-58
2024/01/31 04:09:48;;;;;;;60.60;56.25;;;;;;;;;;4215868;28;20131;-57
2024/01/31 04:11:50;;;;;;;58.20;54.08;;;;;;;;;;4215729;28;20113;-58
2024/01/31 04:13:51;;;;;;;57.25;53.08;;;;;;;;;;4215739;28;20048;-58
2024/01/31 04:15:53;;;;;;;56.25;52.60;;;;;;;;;;4215811;28;20066;-59
2024/01/31 04:17:56;;;;;;;60.08;55.75;;;;;;;;;;4215832;28;20245;-59
2024/01/31 04:20:00;;;;;;;60.80;56.53;;;;;;;;;;4199044;28;20044;-58
2024/01/31 04:22:02;;;;;;;59.13;54.92;;;;;;;;;;4199113;28;20043;-58
2024/01/31 04:24:04;;;;;;;58.60;54.53;;;;;;;;;;4199031;28;20041;-58
2024/01/31 04:26:05;;;;;;;57.97;54.07;;;;;;;;;;4197949;28;20518;-58
2024/01/31 04:28:07;;;;;;;58.50;54.00;;;;;;;;;;4199014;28;20040;-58
2024/01/31 04:30:10;;;;;;;60.78;55.97;;;;;;;;;;4198772;28;20427;-58
2024/01/31 04:32:15;;;;;;;59.42;55.22;;;;;;;;;;4211373;28;20423;-59
2024/01/31 04:34:16;;;;;;;61.15;57.22;;;;;;;;;;4215527;28;20040;-58
2024/01/31 04:36:18;;;;;;;61.15;56.95;;;;;;;;;;4214581;28;20038;-58
2024/01/31 04:38:20;;;;;;;63.85;59.20;;;;;;;;;;4214999;28;20499;-58
2024/01/31 04:40:21;;;;;;;62.75;58.45;;;;;;;;;;4214010;28;20077;-58
2024/01/31 04:42:23;;;;;;;61.30;56.88;;;;;;;;;;4215119;28;20032;-58
2024/01/31 04:44:25;;;;;;;57.87;53.67;;;;;;;;;;4215535;28;20525;-58
2024/01/31 04:46:26;;;;;;;58.20;54.08;;;;;;;;;;4215495;28;20060;-60
2024/01/31 04:48:28;;;;;;;52.10;48.03;;;;;;;;;;4215126;28;20624;-58
2024/01/31 04:50:30;;;;;;;54.53;51.13;;;;;;;;;;4214907;28;20290;-58
2024/01/31 04:52:32;;;;;;;54.00;50.30;;;;;;;;;;4215019;28;20317;-58
2024/01/31 04:54:37;;;;;;;52.13;49.03;;;;;;;;;;4215162;28;20768;-58
2024/01/31 04:56:38;;;;;;;52.92;49.70;;;;;;;;;;4214937;28;20036;-58
2024/01/31 04:58:43;;;;;;;55.97;52.40;;;;;;;;;;4215035;28;20050;-58
2024/01/31 05:00:45;;;;;;;58.38;54.50;;;;;;;;;;4215220;28;20040;-58
2024/01/31 05:02:46;;;;;;;61.40;57.30;;;;;;;;;;4214921;28;20093;-58
2024/01/31 05:04:48;;;;;;;56.22;52.70;;;;;;;;;;4214713;28;20457;-58
2024/01/31 05:06:50;;;;;;;55.10;51.67;;;;;;;;;;4214469;28;20040;-58
2024/01/31 05:08:51;;;;;;;53.47;50.27;;;;;;;;;;4214631;28;20032;-58
2024/01/31 05:10:53;;;;;;;54.50;50.97;;;;;;;;;;4214759;28;20421;-58
2024/01/31 05:12:55;;;;;;;53.35;50.70;;;;;;;;;;4214075;28;20381;-59
2024/01/31 05:14:56;;;;;;;49.58;47.08;;;;;;;;;;4209211;28;20047;-59
2024/01/31 05:16:58;;;;;;;49.20;46.40;;;;;;;;;;4207335;28;20075;-58
2024/01/31 05:19:00;;;;;;;54.50;51.65;;;;;;;;;;4198109;28;20123;-58
2024/01/31 05:21:01;;;;;;;50.93;48.13;;;;;;;;;;4202408;28;20044;-59
2024/01/31 05:23:03;;;;;;;53.20;50.07;;;;;;;;;;4208112;28;20097;-58
2024/01/31 05:25:06;;;;;;;51.50;48.87;;;;;;;;;;4205996;28;20351;-59
2024/01/31 05:27:08;;;;;;;52.22;49.00;;;;;;;;;;4197895;28;20282;-59
2024/01/31 05:29:10;;;;;;;53.97;50.85;;;;;;;;;;4209332;28;20051;-59
2024/01/31 05:31:11;;;;;;;54.90;51.70;;;;;;;;;;4210141;28;20037;-59
2024/01/31 05:33:13;;;;;;;51.07;48.20;;;;;;;;;;4213873;28;20039;-58
2024/01/31 05:35:15;;;;;;;52.15;49.00;;;;;;;;;;4214529;28;20310;-59
2024/01/31 05:37:16;;;;;;;53.22;49.85;;;;;;;;;;4214327;28;20400;-58
2024/01/31 05:39:18;;;;;;;53.13;49.80;;;;;;;;;;4211070;28;20093;-58
2024/01/31 05:41:20;;;;;;;54.90;51.27;;;;;;;;;;4214563;28;20071;-58
2024/01/31 05:43:22;;;;;;;56.07;52.60;;;;;;;;;;4214485;28;20044;-59
2024/01/31 05:45:24;;;;;;;56.60;52.40;;;;;;;;;;4209361;28;20394;-58
2024/01/31 05:47:26;;;;;;;62.40;56.40;;;;;;;;;;4202295;28;20118;-60
2024/01/31 05:49:27;;;;;;;57.13;53.05;;;;;;;;;;4197359;28;20041;-58
2024/01/31 05:51:29;;;;;;;58.08;53.35;;;;;;;;;;4200064;28;20131;-59
2024/01/31 05:53:31;;;;;;;61.63;57.17;;;;;;;;;;4213891;28;20042;-58
2024/01/31 05:55:33;;;;;;;59.63;55.35;;;;;;;;;;4214140;28;20404;-58
2024/01/31 05:57:34;;;;;;;62.25;56.53;;;;;;;;;;4213973;28;20050;-58
2024/01/31 05:59:40;;;;;;;62.25;56.85;;;;;;;;;;4213912;28;20078;-58
2024/01/31 06:01:42;;;;;;;56.10;52.08;;;;;;;;;;4213965;28;20423;-61
2024/01/31 06:03:44;;;;;;;59.85;55.35;;;;;;;;;;4214116;28;20122;-58
2024/01/31 06:05:45;;;;;;;59.55;55.70;;;;;;;;;;4213141;28;20043;-60
2024/01/31 06:07:47;;;;;;;60.90;56.45;;;;;;;;;;4208142;28;20036;-58
2024/01/31 06:09:49;;;;;;;58.83;54.72;;;;;;;;;;4213749;28;20044;-59
2024/01/31 06:11:50;;;;;;;59.90;55.63;;;;;;;;;;4212523;28;20104;-62
2024/01/31 06:13:55;;;;;;;61.38;57.40;;;;;;;;;;4206974;28;20036;-62
2024/01/31 06:15:56;;;;;;;60.15;56.22;;;;;;;;;;4214102;28;20097;-63
2024/01/31 06:17:58;;;;;;;59.08;55.28;;;;;;;;;;4199668;28;20044;-62
2024/01/31 06:20:00;;;;;;;60.05;56.15;;;;;;;;;;4197258;28;20492;-64
2024/01/31 06:22:02;;;;;;;57.70;54.05;;;;;;;;;;4197642;28;20037;-62
2024/01/31 06:24:04;;;;;;;60.60;56.60;;;;;;;;;;4209534;28;20048;-63
2024/01/31 06:26:05;;;;;;;62.92;58.70;;;;;;;;;;4207166;28;20097;-63
2024/01/31 06:28:07;;;;;;;60.28;56.42;;;;;;;;;;4213625;28;20077;-63
2024/01/31 06:30:19;;;;;;;57.67;53.93;;;;;;;;;;4213857;28;20044;-62
2024/01/31 06:32:29;;;;;;;59.63;55.95;;;;;;;;;;4199934;28;20321;-63
2024/01/31 06:34:34;;;;;;;57.13;53.38;;;;;;;;;;4197757;28;20040;-63
2024/01/31 06:36:36;;;;;;;57.97;54.05;;;;;;;;;;4213890;28;20036;-63
2024/01/31 06:38:37;;;;;;;58.78;54.95;;;;;;;;;;4213522;28;20036;-63
2024/01/31 06:40:39;;;;;;;61.33;56.92;;;;;;;;;;4213510;28;20062;-63
2024/01/31 06:42:41;;;;;;;58.80;55.07;;;;;;;;;;4210949;28;20149;-62
2024/01/31 06:44:42;;;;;;;61.90;57.72;;;;;;;;;;4196405;28;20040;-63
2024/01/31 06:46:47;;;;;;;57.03;53.13;;;;;;;;;;4203273;28;20044;-63
2024/01/31 06:48:49;;;;;;;59.50;55.63;;;;;;;;;;4196728;28;20459;-63
2024/01/31 06:50:51;;;;;;;60.77;56.03;;;;;;;;;;4196783;28;20139;-63
2024/01/31 06:52:52;;;;;;;53.70;49.97;;;;;;;;;;4197056;28;20682;-63
2024/01/31 06:54:55;;;;;;;54.53;51.37;;;;;;;;;;4196764;28;20045;-62
2024/01/31 06:56:58;;;;;;;54.85;51.50;;;;;;;;;;4197459;28;20120;-63
2024/01/31 06:59:00;;;;;;;57.13;53.60;;;;;;;;;;4214740;28;20071;-63
2024/01/31 07:01:04;;;;;;;54.75;51.25;;;;;;;;;;4216954;28;20036;-63
2024/01/31 07:03:06;;;;;;;57.92;54.40;;;;;;;;;;4217061;28;20036;-63
2024/01/31 07:05:08;;;;;;;58.33;53.67;;;;;;;;;;4217007;28;20072;-63
2024/01/31 07:07:09;;;;;;;65.40;60.73;;;;;;;;;;4216764;28;20036;-62
2024/01/31 07:09:11;;;;;;;61.45;56.95;;;;;;;;;;4217006;28;20402;-63
2024/01/31 07:11:13;;;;;;;56.75;52.65;;;;;;;;;;4215376;28;20503;-63
2024/01/31 07:13:15;;;;;;;63.15;58.53;;;;;;;;;;4216586;28;20038;-63
2024/01/31 07:15:22;;;;;;;63.60;59.25;;;;;;;;;;4215275;28;20132;-63
2024/01/31 07:17:23;;;;;;;59.83;54.35;;;;;;;;;;4202072;28;20040;-63
2024/01/31 07:19:25;;;;;;;67.93;62.65;;;;;;;;;;4198598;28;20033;-63
2024/01/31 07:21:27;;;;;;;76.65;70.05;;;;;;;;;;4200050;28;20115;-62
2024/01/31 07:23:29;;;;;;;80.22;73.00;;;;;;;;;;4199740;28;20094;-63
2024/01/31 07:25:31;;;;;;;80.23;73.07;;;;;;;;;;4199554;28;20404;-63
2024/01/31 07:27:32;;;;;;;75.35;69.00;;;;;;;;;;4204654;28;20036;-63
2024/01/31 07:29:34;;;;;;;81.50;74.57;;;;;;;;;;4216383;28;20391;-63
2024/01/31 07:31:36;;;;;;;76.90;69.97;;;;;;;;;;4208458;28;20037;-63
2024/01/31 07:33:38;;;;;;;84.43;76.50;;;;;;;;;;4199683;28;20484;-63
2024/01/31 07:35:39;;;;;;;77.97;71.88;;;;;;;;;;4199500;28;20282;-63
2024/01/31 07:37:41;;;;;;;70.82;64.93;;;;;;;;;;4199886;28;20064;-63
2024/01/31 07:39:44;;;;;;;65.97;60.90;;;;;;;;;;4199306;28;20045;-63
2024/01/31 07:41:46;;;;;;;64.28;60.05;;;;;;;;;;4199064;28;20123;-60
2024/01/31 07:43:47;;;;;;;63.70;59.28;;;;;;;;;;4198596;28;20509;-59
2024/01/31 07:45:49;;;;;;;66.38;61.60;;;;;;;;;;4199643;28;20041;-60
2024/01/31 07:47:51;;;;;;;62.28;58.28;;;;;;;;;;4198089;28;20139;-60
2024/01/31 07:49:53;;;;;;;56.15;52.22;;;;;;;;;;4199308;28;20404;-61
2024/01/31 07:51:57;;;;;;;56.97;53.58;;;;;;;;;;4199437;28;20083;-60
2024/01/31 07:53:59;;;;;;;54.90;52.03;;;;;;;;;;4199239;28;20064;-60
2024/01/31 07:56:00;;;;;;;53.42;50.53;;;;;;;;;;4199425;28;20388;-60
2024/01/31 07:58:06;;;;;;;62.35;57.70;;;;;;;;;;4209287;28;20036;-60
2024/01/31 08:00:09;;;;;;;77.57;70.23;;;;;;;;;;4216136;28;20043;-60
2024/01/31 08:02:10;;;;;;;93.50;83.95;;;;;;;;;;4216186;28;20430;-60
2024/01/31 08:04:12;;;;;;;85.50;77.13;;;;;;;;;;4216174;28;20040;-60
2024/01/31 08:06:14;;;;;;;82.13;74.32;;;;;;;;;;4216032;28;20044;-60
2024/01/31 08:08:16;;;;;;;85.63;76.93;;;;;;;;;;4216052;28;20040;-60
2024/01/31 08:10:18;;;;;;;81.50;73.23;;;;;;;;;;4216141;28;20047;-60
2024/01/31 08:12:19;;;;;;;68.40;62.50;;;;;;;;;;4212582;28;20780;-60
2024/01/31 08:14:21;;;;;;;70.65;64.75;;;;;;;;;;4198970;28;20037;-60
2024/01/31 08:16:23;;;;;;;60.40;56.20;;;;;;;;;;4199321;28;20439;-60
2024/01/31 08:18:24;;;;;;;62.65;58.47;;;;;;;;;;4199181;28;20116;-60
2024/01/31 08:20:26;;;;;;;58.95;55.10;;;;;;;;;;4199038;28;20040;-60
2024/01/31 08:22:28;;;;;;;55.97;52.28;;;;;;;;;;4199270;28;20033;-60
2024/01/31 08:24:30;;;;;;;55.35;51.53;;;;;;;;;;4199200;28;20044;-60
2024/01/31 08:26:31;;;;;;;77.20;70.57;;;;;;;;;;4198949;28;20041;-60
2024/01/31 08:28:33;;;;;;;61.97;57.70;;;;;;;;;;4199429;28;20041;-60
2024/01/31 08:30:35;;;;;;;53.30;50.30;;;;;;;;;;4198906;28;20051;-60
2024/01/31 08:32:37;;;;;;;48.00;45.40;;;;;;;;;;4199135;28;20045;-60
2024/01/31 08:34:38;;;;;;;48.45;45.67;;;;;;;;;;4198650;28;20094;-60
2024/01/31 08:36:40;;;;;;;54.47;51.17;;;;;;;;;;4199496;28;20037;-60
2024/01/31 08:38:43;;;;;;;49.28;46.65;;;;;;;;;;4198546;28;20120;-60
2024/01/31 08:40:45;;;;;;;47.20;44.70;;;;;;;;;;4198734;28;20036;-60
2024/01/31 08:42:46;;;;;;;49.50;47.00;;;;;;;;;;4198645;28;20066;-60
2024/01/31 08:44:48;;;;;;;43.15;41.45;;;;;;;;;;4198521;28;20132;-60
2024/01/31 08:46:51;;;;;;;44.05;42.33;;;;;;;;;;4198633;28;20078;-60
2024/01/31 08:49:12;;;;;;;67.13;61.95;;;;;;;;;;4198436;28;20091;-59
2024/01/31 08:51:14;;;;;;;52.33;49.37;;;;;;;;;;4198979;28;20044;-62
2024/01/31 08:53:16;;;;;;;51.00;48.40;;;;;;;;;;4198723;28;20377;-62
2024/01/31 08:55:17;;;;;;;47.60;45.58;;;;;;;;;;4198531;28;20086;-62
2024/01/31 08:57:19;;;;;;;45.90;43.60;;;;;;;;;;4201719;28;20044;-63
2024/01/31 08:59:22;;;;;;;57.70;53.40;;;;;;;;;;4215368;28;20526;-62
2024/01/31 09:01:25;;;;;;;67.05;60.60;;;;;;;;;;4215372;28;20111;-62
2024/01/31 09:03:26;;;;;;;73.47;66.75;;;;;;;;;;4215074;28;20043;-63
2024/01/31 09:05:28;;;;;;;84.40;75.87;;;;;;;;;;4215309;28;20119;-63
2024/01/31 09:07:38;;;;;;;85.15;77.15;;;;;;;;;;4215212;28;20466;-63
2024/01/31 09:09:39;;;;;;;81.18;73.25;;;;;;;;;;4202897;28;20055;-63
2024/01/31 09:11:41;;;;;;;70.40;64.00;;;;;;;;;;4198417;28;20052;-62
2024/01/31 09:13:43;;;;;;;72.17;65.53;;;;;;;;;;4198213;28;20287;-63
2024/01/31 09:15:45;;;;;;;59.77;55.07;;;;;;;;;;4198139;28;20480;-63
2024/01/31 09:17:47;;;;;;;56.85;52.72;;;;;;;;;;4197890;28;20295;-63
2024/01/31 09:19:49;;;;;;;57.10;52.67;;;;;;;;;;4197934;28;20037;-63
2024/01/31 09:21:51;;;;;;;62.20;56.90;;;;;;;;;;4197711;28;20063;-63
2024/01/31 09:23:53;;;;;;;64.85;59.42;;;;;;;;;;4204135;28;20060;-63
2024/01/31 09:25:55;;;;;;;63.55;58.10;;;;;;;;;;4214618;28;20036;-63
2024/01/31 09:27:57;;;;;;;62.38;57.45;;;;;;;;;;4205090;28;20048;-63
2024/01/31 09:29:58;;;;;;;63.28;58.10;;;;;;;;;;4197681;28;20396;-63
2024/01/31 09:32:02;;;;;;;99.50;83.40;;;;;;;;;;4197776;28;20039;-63
2024/01/31 09:34:04;;;;;;;81.32;72.57;;;;;;;;;;4197813;28;20143;-63
2024/01/31 09:36:07;;;;;;;88.00;77.23;;;;;;;;;;4197792;28;20041;-63
2024/01/31 09:38:09;;;;;;;84.10;74.97;;;;;;;;;;4197775;28;20815;-63
2024/01/31 09:40:15;;;;;;;89.57;79.32;;;;;;;;;;4196171;28;20053;-63
2024/01/31 09:42:17;;;;;;;88.30;78.93;;;;;;;;;;4197803;28;20087;-63
2024/01/31 09:44:19;;;;;;;88.17;75.67;;;;;;;;;;4197871;28;20047;-63
2024/01/31 09:46:20;;;;;;;72.65;65.10;;;;;;;;;;4198018;28;20123;-63
2024/01/31 09:48:23;;;;;;;69.70;62.45;;;;;;;;;;4197638;28;20040;-63
2024/01/31 09:50:25;;;;;;;73.13;65.90;;;;;;;;;;4197252;28;20044;-63
2024/01/31 09:52:29;;;;;;;69.20;62.40;;;;;;;;;;4201813;28;20044;-63
2024/01/31 09:54:31;;;;;;;62.35;57.25;;;;;;;;;;4214088;28;20655;-63
2024/01/31 09:56:33;;;;;;;57.85;53.13;;;;;;;;;;4214186;28;20047;-63
2024/01/31 09:58:36;;;;;;;51.97;48.47;;;;;;;;;;4214035;28;20059;-63
2024/01/31 10:00:38;;;;;;;50.63;47.35;;;;;;;;;;4214353;28;20068;-64
2024/01/31 10:02:40;;;;;;;45.45;42.58;;;;;;;;;;4213036;28;20036;-60
2024/01/31 10:04:46;;;;;;;46.50;43.80;;;;;;;;;;4211792;28;20492;-60
2024/01/31 10:06:48;;;;;;;44.03;41.63;;;;;;;;;;4197312;28;20097;-60
2024/01/31 10:08:50;;;;;;;39.92;38.05;;;;;;;;;;4197508;28;20147;-60
2024/01/31 10:10:52;;;;;;;36.73;34.77;;;;;;;;;;4197346;28;20450;-60
2024/01/31 10:12:53;;;;;;;42.03;39.47;;;;;;;;;;4197423;28;20443;-60
2024/01/31 10:14:55;;;;;;;51.03;47.47;;;;;;;;;;4197191;28;20289;-60
2024/01/31 10:17:22;;;;;;;42.97;40.47;;;;;;;;;;4197101;28;20028;-60
2024/01/31 10:19:23;;;;;;;;;;;;;;;;;;4197797;28;20040;-59
2024/01/31 10:21:26;;;;;;;41.65;39.10;;;;;;;;;;4197270;28;19974;-59
2024/01/31 10:23:28;;;;;;;40.88;38.97;;;;;;;;;;4197352;28;20090;-60
2024/01/31 10:25:30;;;;;;;39.90;37.78;;;;;;;;;;4199144;28;20115;-60
2024/01/31 10:27:35;;;;;;;41.15;38.55;;;;;;;;;;4210055;28;20036;-60
2024/01/31 10:29:37;;;;;;;39.08;36.92;;;;;;;;;;4211577;28;20094;-60
2024/01/31 10:31:41;;;;;;;39.88;37.97;;;;;;;;;;4213384;28;20048;-59
2024/01/31 10:33:43;;;;;;;38.20;36.28;;;;;;;;;;4211399;28;20036;-60
2024/01/31 10:35:47;;;;;;;40.20;38.05;;;;;;;;;;4213355;28;20071;-60
2024/01/31 10:38:08;;;;;;;38.95;37.10;;;;;;;;;;4213256;28;20081;-59
2024/01/31 10:40:11;;;;;;;38.13;36.13;;;;;;;;;;4217064;28;20052;-59
2024/01/31 10:42:15;;;;;;;40.00;37.40;;;;;;;;;;4216795;28;20043;-60
2024/01/31 10:44:17;;;;;;;38.97;36.95;;;;;;;;;;4216180;28;20400;-60
2024/01/31 10:46:19;;;;;;;34.63;32.83;;;;;;;;;;4217061;28;20039;-60
2024/01/31 10:48:21;;;;;;;36.73;34.93;;;;;;;;;;4217487;28;20031;-60
2024/01/31 10:50:23;;;;;;;40.03;37.92;;;;;;;;;;4217045;28;20684;-60
2024/01/31 10:52:28;;;;;;;41.90;38.90;;;;;;;;;;4216772;28;20036;-63
2024/01/31 10:54:33;;;;;;;43.33;39.70;;;;;;;;;;4215956;28;20048;-64
2024/01/31 10:56:37;;;;;;;38.65;36.10;;;;;;;;;;4215684;28;20111;-63
2024/01/31 10:58:40;;;;;;;35.08;32.65;;;;;;;;;;4216007;28;20032;-63
2024/01/31 11:00:41;;;;;;;;;;;;;;;;;;4215935;28;20050;-63
2024/01/31 11:02:43;;;;;;;41.50;38.53;;;;;;;;;;4214589;28;20014;-64
2024/01/31 11:04:45;;;;;;;38.60;36.10;;;;;;;;;;4216501;28;20036;-63
2024/01/31 11:06:50;;;;;;;37.25;35.38;;;;;;;;;;4215423;28;20059;-64
2024/01/31 11:08:52;;;;;;;35.83;33.95;;;;;;;;;;4215027;28;20036;-63
2024/01/31 11:10:54;;;;;;;32.65;30.88;;;;;;;;;;4216482;28;20071;-64
2024/01/31 11:13:04;;;;;;;36.63;34.20;;;;;;;;;;4212245;28;20054;-63
2024/01/31 11:15:06;;;;;;;36.05;33.58;;;;;;;;;;4211183;28;20032;-63
2024/01/31 11:17:07;;;;;;;33.15;31.35;;;;;;;;;;4209141;28;20094;-64
2024/01/31 11:19:17;;;;;;;31.73;29.83;;;;;;;;;;4208515;28;20404;-64
2024/01/31 11:21:20;;;;;;;30.33;28.88;;;;;;;;;;4211424;28;21803;-64
2024/01/31 11:23:23;;;;;;;29.55;28.15;;;;;;;;;;4216159;28;20040;-64
2024/01/31 11:25:28;;;;;;;27.40;25.85;;;;;;;;;;4215005;28;20176;-63
2024/01/31 11:27:30;;;;;;;32.15;30.35;;;;;;;;;;4214434;28;20040;-64
2024/01/31 11:29:31;;;;;;;36.08;33.58;;;;;;;;;;4214070;28;20486;-64
2024/01/31 11:31:33;;;;;;;33.60;31.80;;;;;;;;;;4216060;28;20052;-64
2024/01/31 11:33:35;;;;;;;32.67;30.80;;;;;;;;;;4214732;28;20032;-64
2024/01/31 11:35:37;;;;;;;31.38;29.55;;;;;;;;;;4216017;28;20083;-64
2024/01/31 11:37:39;;;;;;;24.08;22.83;;;;;;;;;;4216298;28;20075;-64
2024/01/31 11:39:41;;;;;;;24.48;23.17;;;;;;;;;;4215536;28;20040;-64
2024/01/31 11:41:42;;;;;;;28.20;26.13;;;;;;;;;;4215119;28;20059;-64
2024/01/31 11:43:44;;;;;;;24.67;22.98;;;;;;;;;;4205024;28;20040;-64
2024/01/31 11:45:47;;;;;;;23.27;21.73;;;;;;;;;;4213540;28;20036;-63
2024/01/31 11:47:50;;;;;;;27.73;25.63;;;;;;;;;;4214787;28;20316;-64
2024/01/31 11:49:51;;;;;;;23.80;22.17;;;;;;;;;;4212314;28;20542;-63
2024/01/31 11:51:53;;;;;;;23.85;22.40;;;;;;;;;;4209097;28;20040;-64
2024/01/31 11:53:55;;;;;;;25.10;23.37;;;;;;;;;;4212621;28;20126;-64